sensor_id;sensor_type;location;lat;lon;timestamp;P1;durP1;ratioP1;P2;durP2;ratioP2
64938;SDS011;51453;47.738;7.420;2022-12-11T00:02:02;114.38;;;37.03;;
64938;SDS011;51453;47.738;7.420;2022-12-11T00:04:28;138.07;;;40.42;;
64938;SDS011;51453;47.738;7.420;2022-12-11T00:06:55;136.30;;;40.15;;
64938;SDS011;51453;47.738;7.420;2022-12-11T00:09:20;116.07;;;37.33;;
64938;SDS011;51453;47.738;7.420;2022-12-11T00:11:46;132.68;;;39.35;;
64938;SDS011;51453;47.738;7.420;2022-12-11T00:14:13;128.35;;;38.17;;
64938;SDS011;51453;47.738;7.420;2022-12-11T00:16:39;103.68;;;34.65;;
64938;SDS011;51453;47.738;7.420;2022-12-11T00:19:05;95.00;;;31.67;;
64938;SDS011;51453;47.738;7.420;2022-12-11T00:21:31;110.10;;;34.72;;
64938;SDS011;51453;47.738;7.420;2022-12-11T00:23:57;100.57;;;33.22;;
64938;SDS011;51453;47.738;7.420;2022-12-11T00:26:23;103.03;;;33.42;;
64938;SDS011;51453;47.738;7.420;2022-12-11T00:28:51;91.18;;;31.75;;
64938;SDS011;51453;47.738;7.420;2022-12-11T00:31:19;89.10;;;30.33;;
64938;SDS011;51453;47.738;7.420;2022-12-11T00:33:46;99.70;;;34.78;;
64938;SDS011;51453;47.738;7.420;2022-12-11T00:36:22;115.55;;;35.40;;
64938;SDS011;51453;47.738;7.420;2022-12-11T00:38:49;121.85;;;35.50;;
64938;SDS011;51453;47.738;7.420;2022-12-11T00:41:16;93.07;;;30.27;;
64938;SDS011;51453;47.738;7.420;2022-12-11T00:43:42;98.22;;;32.20;;
64938;SDS011;51453;47.738;7.420;2022-12-11T00:46:08;88.47;;;29.15;;
64938;SDS011;51453;47.738;7.420;2022-12-11T00:48:34;84.28;;;28.10;;
64938;SDS011;51453;47.738;7.420;2022-12-11T00:51:00;91.78;;;30.35;;
64938;SDS011;51453;47.738;7.420;2022-12-11T00:53:26;76.15;;;28.05;;
64938;SDS011;51453;47.738;7.420;2022-12-11T00:55:52;71.65;;;26.02;;
64938;SDS011;51453;47.738;7.420;2022-12-11T00:58:18;85.38;;;29.58;;
64938;SDS011;51453;47.738;7.420;2022-12-11T01:00:43;107.45;;;34.53;;
64938;SDS011;51453;47.738;7.420;2022-12-11T01:03:10;102.30;;;30.58;;
64938;SDS011;51453;47.738;7.420;2022-12-11T01:05:38;98.53;;;32.60;;
64938;SDS011;51453;47.738;7.420;2022-12-11T01:08:04;96.57;;;31.30;;
64938;SDS011;51453;47.738;7.420;2022-12-11T01:10:30;98.50;;;31.15;;
64938;SDS011;51453;47.738;7.420;2022-12-11T01:13:03;118.97;;;35.63;;
64938;SDS011;51453;47.738;7.420;2022-12-11T01:15:32;114.55;;;34.72;;
64938;SDS011;51453;47.738;7.420;2022-12-11T01:18:02;109.40;;;34.88;;
64938;SDS011;51453;47.738;7.420;2022-12-11T01:20:27;115.47;;;33.30;;
64938;SDS011;51453;47.738;7.420;2022-12-11T01:22:55;122.90;;;35.78;;
64938;SDS011;51453;47.738;7.420;2022-12-11T01:25:23;140.27;;;39.30;;
64938;SDS011;51453;47.738;7.420;2022-12-11T01:27:50;128.55;;;37.75;;
64938;SDS011;51453;47.738;7.420;2022-12-11T01:30:18;141.18;;;39.00;;
64938;SDS011;51453;47.738;7.420;2022-12-11T01:32:45;139.32;;;40.53;;
64938;SDS011;51453;47.738;7.420;2022-12-11T01:35:11;147.75;;;38.10;;
64938;SDS011;51453;47.738;7.420;2022-12-11T01:37:37;124.10;;;35.47;;
64938;SDS011;51453;47.738;7.420;2022-12-11T01:40:04;112.82;;;34.40;;
64938;SDS011;51453;47.738;7.420;2022-12-11T01:42:31;99.70;;;32.58;;
64938;SDS011;51453;47.738;7.420;2022-12-11T01:48:10;109.63;;;34.00;;
64938;SDS011;51453;47.738;7.420;2022-12-11T01:50:43;87.60;;;30.63;;
64938;SDS011;51453;47.738;7.420;2022-12-11T01:53:14;71.97;;;27.70;;
64938;SDS011;51453;47.738;7.420;2022-12-11T01:55:43;70.65;;;27.23;;
64938;SDS011;51453;47.738;7.420;2022-12-11T01:58:11;68.13;;;26.48;;
64938;SDS011;51453;47.738;7.420;2022-12-11T02:00:38;67.43;;;27.58;;
64938;SDS011;51453;47.738;7.420;2022-12-11T02:03:04;83.65;;;30.50;;
64938;SDS011;51453;47.738;7.420;2022-12-11T02:05:30;91.95;;;32.15;;
64938;SDS011;51453;47.738;7.420;2022-12-11T02:07:56;94.07;;;32.28;;
64938;SDS011;51453;47.738;7.420;2022-12-11T02:10:27;102.57;;;34.85;;
64938;SDS011;51453;47.738;7.420;2022-12-11T02:13:05;114.30;;;35.65;;
64938;SDS011;51453;47.738;7.420;2022-12-11T02:28:56;104.30;;;36.13;;
64938;SDS011;51453;47.738;7.420;2022-12-11T02:33:56;105.75;;;35.55;;
64938;SDS011;51453;47.738;7.420;2022-12-11T02:36:23;105.53;;;36.30;;
64938;SDS011;51453;47.738;7.420;2022-12-11T02:38:53;133.90;;;38.35;;
64938;SDS011;51453;47.738;7.420;2022-12-11T02:41:21;147.25;;;38.63;;
64938;SDS011;51453;47.738;7.420;2022-12-11T02:43:49;163.32;;;40.47;;
64938;SDS011;51453;47.738;7.420;2022-12-11T02:46:15;152.52;;;39.45;;
64938;SDS011;51453;47.738;7.420;2022-12-11T02:48:44;143.73;;;38.78;;
64938;SDS011;51453;47.738;7.420;2022-12-11T02:51:12;157.00;;;40.03;;
64938;SDS011;51453;47.738;7.420;2022-12-11T02:53:40;129.95;;;38.72;;
64938;SDS011;51453;47.738;7.420;2022-12-11T02:58:41;155.20;;;38.78;;
64938;SDS011;51453;47.738;7.420;2022-12-11T03:01:11;155.38;;;37.90;;
64938;SDS011;51453;47.738;7.420;2022-12-11T03:03:37;148.45;;;38.95;;
64938;SDS011;51453;47.738;7.420;2022-12-11T03:06:03;138.32;;;37.85;;
64938;SDS011;51453;47.738;7.420;2022-12-11T03:08:29;117.35;;;37.53;;
64938;SDS011;51453;47.738;7.420;2022-12-11T03:10:55;129.77;;;38.90;;
64938;SDS011;51453;47.738;7.420;2022-12-11T03:13:21;106.82;;;36.42;;
64938;SDS011;51453;47.738;7.420;2022-12-11T03:19:09;121.43;;;36.53;;
64938;SDS011;51453;47.738;7.420;2022-12-11T03:21:59;105.20;;;36.03;;
64938;SDS011;51453;47.738;7.420;2022-12-11T03:24:43;121.80;;;36.40;;
64938;SDS011;51453;47.738;7.420;2022-12-11T03:27:16;127.75;;;39.83;;
64938;SDS011;51453;47.738;7.420;2022-12-11T03:29:46;131.63;;;38.97;;
64938;SDS011;51453;47.738;7.420;2022-12-11T03:32:35;147.52;;;38.40;;
64938;SDS011;51453;47.738;7.420;2022-12-11T03:37:51;157.10;;;37.85;;
64938;SDS011;51453;47.738;7.420;2022-12-11T03:40:19;153.80;;;35.58;;
64938;SDS011;51453;47.738;7.420;2022-12-11T03:42:47;154.68;;;37.22;;
64938;SDS011;51453;47.738;7.420;2022-12-11T03:45:15;152.30;;;37.15;;
64938;SDS011;51453;47.738;7.420;2022-12-11T03:47:43;234.43;;;36.80;;
64938;SDS011;51453;47.738;7.420;2022-12-11T03:50:10;190.77;;;37.15;;
64938;SDS011;51453;47.738;7.420;2022-12-11T03:52:42;282.90;;;35.45;;
64938;SDS011;51453;47.738;7.420;2022-12-11T03:55:10;266.58;;;36.53;;
64938;SDS011;51453;47.738;7.420;2022-12-11T03:57:37;151.98;;;32.33;;
64938;SDS011;51453;47.738;7.420;2022-12-11T04:00:05;212.10;;;36.10;;
64938;SDS011;51453;47.738;7.420;2022-12-11T04:02:35;220.40;;;36.03;;
64938;SDS011;51453;47.738;7.420;2022-12-11T04:05:00;156.57;;;35.58;;
64938;SDS011;51453;47.738;7.420;2022-12-11T04:07:26;229.43;;;37.55;;
64938;SDS011;51453;47.738;7.420;2022-12-11T04:09:52;176.02;;;37.13;;
64938;SDS011;51453;47.738;7.420;2022-12-11T04:12:19;175.00;;;35.05;;
64938;SDS011;51453;47.738;7.420;2022-12-11T04:14:44;173.93;;;35.85;;
64938;SDS011;51453;47.738;7.420;2022-12-11T04:17:29;125.30;;;31.95;;
64938;SDS011;51453;47.738;7.420;2022-12-11T04:20:14;154.20;;;33.05;;
64938;SDS011;51453;47.738;7.420;2022-12-11T04:23:01;184.80;;;35.25;;
64938;SDS011;51453;47.738;7.420;2022-12-11T04:25:49;133.70;;;33.60;;
64938;SDS011;51453;47.738;7.420;2022-12-11T04:28:15;159.60;;;35.15;;
64938;SDS011;51453;47.738;7.420;2022-12-11T04:30:46;127.18;;;33.53;;
64938;SDS011;51453;47.738;7.420;2022-12-11T04:33:12;151.38;;;34.55;;
64938;SDS011;51453;47.738;7.420;2022-12-11T04:35:38;118.55;;;32.38;;
64938;SDS011;51453;47.738;7.420;2022-12-11T04:38:03;152.13;;;36.60;;
64938;SDS011;51453;47.738;7.420;2022-12-11T04:40:29;148.50;;;35.38;;
64938;SDS011;51453;47.738;7.420;2022-12-11T04:42:55;136.38;;;35.95;;
64938;SDS011;51453;47.738;7.420;2022-12-11T04:45:21;154.45;;;33.85;;
64938;SDS011;51453;47.738;7.420;2022-12-11T04:47:46;135.77;;;34.03;;
64938;SDS011;51453;47.738;7.420;2022-12-11T04:50:12;122.75;;;33.60;;
64938;SDS011;51453;47.738;7.420;2022-12-11T04:52:39;121.70;;;33.15;;
64938;SDS011;51453;47.738;7.420;2022-12-11T04:55:05;146.27;;;34.85;;
64938;SDS011;51453;47.738;7.420;2022-12-11T04:57:32;135.38;;;34.85;;
64938;SDS011;51453;47.738;7.420;2022-12-11T04:59:58;132.70;;;35.33;;
64938;SDS011;51453;47.738;7.420;2022-12-11T05:02:24;129.93;;;36.63;;
64938;SDS011;51453;47.738;7.420;2022-12-11T05:04:50;126.07;;;34.97;;
64938;SDS011;51453;47.738;7.420;2022-12-11T05:07:16;127.38;;;36.08;;
64938;SDS011;51453;47.738;7.420;2022-12-11T05:09:42;111.63;;;33.97;;
64938;SDS011;51453;47.738;7.420;2022-12-11T05:12:08;114.63;;;34.92;;
64938;SDS011;51453;47.738;7.420;2022-12-11T05:14:33;124.60;;;36.38;;
64938;SDS011;51453;47.738;7.420;2022-12-11T05:16:59;119.10;;;37.00;;
64938;SDS011;51453;47.738;7.420;2022-12-11T05:19:25;123.57;;;34.85;;
64938;SDS011;51453;47.738;7.420;2022-12-11T05:21:51;123.90;;;34.40;;
64938;SDS011;51453;47.738;7.420;2022-12-11T05:24:17;122.13;;;35.90;;
64938;SDS011;51453;47.738;7.420;2022-12-11T05:26:43;122.05;;;35.80;;
64938;SDS011;51453;47.738;7.420;2022-12-11T05:29:09;129.80;;;36.85;;
64938;SDS011;51453;47.738;7.420;2022-12-11T05:31:34;116.10;;;34.35;;
64938;SDS011;51453;47.738;7.420;2022-12-11T05:34:00;106.10;;;32.97;;
64938;SDS011;51453;47.738;7.420;2022-12-11T05:36:27;97.03;;;33.50;;
64938;SDS011;51453;47.738;7.420;2022-12-11T05:38:55;82.00;;;30.02;;
64938;SDS011;51453;47.738;7.420;2022-12-11T05:41:22;90.75;;;30.90;;
64938;SDS011;51453;47.738;7.420;2022-12-11T05:43:49;93.05;;;31.75;;
64938;SDS011;51453;47.738;7.420;2022-12-11T05:46:16;95.80;;;31.20;;
64938;SDS011;51453;47.738;7.420;2022-12-11T05:48:45;92.35;;;31.63;;
64938;SDS011;51453;47.738;7.420;2022-12-11T05:51:13;86.53;;;30.67;;
64938;SDS011;51453;47.738;7.420;2022-12-11T05:53:41;90.35;;;31.65;;
64938;SDS011;51453;47.738;7.420;2022-12-11T05:56:12;103.65;;;33.35;;
64938;SDS011;51453;47.738;7.420;2022-12-11T05:58:40;96.18;;;32.95;;
64938;SDS011;51453;47.738;7.420;2022-12-11T06:01:12;93.47;;;32.63;;
64938;SDS011;51453;47.738;7.420;2022-12-11T06:03:44;95.53;;;33.47;;
64938;SDS011;51453;47.738;7.420;2022-12-11T06:06:11;87.47;;;33.10;;
64938;SDS011;51453;47.738;7.420;2022-12-11T06:08:37;92.40;;;32.40;;
64938;SDS011;51453;47.738;7.420;2022-12-11T06:11:03;86.85;;;30.95;;
64938;SDS011;51453;47.738;7.420;2022-12-11T06:13:29;83.75;;;31.15;;
64938;SDS011;51453;47.738;7.420;2022-12-11T06:15:59;91.43;;;32.90;;
64938;SDS011;51453;47.738;7.420;2022-12-11T06:18:26;97.43;;;34.83;;
64938;SDS011;51453;47.738;7.420;2022-12-11T06:20:52;110.40;;;34.92;;
64938;SDS011;51453;47.738;7.420;2022-12-11T06:23:18;109.90;;;34.00;;
64938;SDS011;51453;47.738;7.420;2022-12-11T06:25:44;98.93;;;33.53;;
64938;SDS011;51453;47.738;7.420;2022-12-11T06:28:09;76.45;;;30.50;;
64938;SDS011;51453;47.738;7.420;2022-12-11T06:30:35;62.42;;;27.42;;
64938;SDS011;51453;47.738;7.420;2022-12-11T06:33:01;67.60;;;26.85;;
64938;SDS011;51453;47.738;7.420;2022-12-11T06:35:27;63.15;;;26.67;;
64938;SDS011;51453;47.738;7.420;2022-12-11T06:37:53;64.35;;;26.65;;
64938;SDS011;51453;47.738;7.420;2022-12-11T06:40:18;62.30;;;27.23;;
64938;SDS011;51453;47.738;7.420;2022-12-11T06:42:44;66.43;;;26.58;;
64938;SDS011;51453;47.738;7.420;2022-12-11T06:45:10;70.28;;;29.20;;
64938;SDS011;51453;47.738;7.420;2022-12-11T06:47:35;70.80;;;28.38;;
64938;SDS011;51453;47.738;7.420;2022-12-11T06:50:01;69.18;;;28.70;;
64938;SDS011;51453;47.738;7.420;2022-12-11T06:52:27;67.40;;;27.38;;
64938;SDS011;51453;47.738;7.420;2022-12-11T06:54:53;73.30;;;30.38;;
64938;SDS011;51453;47.738;7.420;2022-12-11T06:57:19;77.85;;;30.27;;
64938;SDS011;51453;47.738;7.420;2022-12-11T06:59:45;78.55;;;30.38;;
64938;SDS011;51453;47.738;7.420;2022-12-11T07:02:12;74.70;;;30.50;;
64938;SDS011;51453;47.738;7.420;2022-12-11T07:04:38;78.00;;;30.40;;
64938;SDS011;51453;47.738;7.420;2022-12-11T07:07:04;80.68;;;29.85;;
64938;SDS011;51453;47.738;7.420;2022-12-11T07:09:30;77.00;;;31.90;;
64938;SDS011;51453;47.738;7.420;2022-12-11T07:11:56;73.47;;;29.38;;
64938;SDS011;51453;47.738;7.420;2022-12-11T07:14:22;75.47;;;29.13;;
64938;SDS011;51453;47.738;7.420;2022-12-11T07:16:47;54.80;;;24.67;;
64938;SDS011;51453;47.738;7.420;2022-12-11T07:19:13;62.28;;;26.38;;
64938;SDS011;51453;47.738;7.420;2022-12-11T07:21:39;66.03;;;26.95;;
64938;SDS011;51453;47.738;7.420;2022-12-11T07:24:05;58.38;;;26.60;;
64938;SDS011;51453;47.738;7.420;2022-12-11T07:26:31;56.35;;;25.85;;
64938;SDS011;51453;47.738;7.420;2022-12-11T07:28:57;56.63;;;24.90;;
64938;SDS011;51453;47.738;7.420;2022-12-11T07:31:24;57.45;;;26.55;;
64938;SDS011;51453;47.738;7.420;2022-12-11T07:33:55;52.80;;;25.08;;
64938;SDS011;51453;47.738;7.420;2022-12-11T07:38:48;52.60;;;24.63;;
64938;SDS011;51453;47.738;7.420;2022-12-11T07:41:14;57.17;;;26.60;;
64938;SDS011;51453;47.738;7.420;2022-12-11T07:43:40;62.70;;;27.40;;
64938;SDS011;51453;47.738;7.420;2022-12-11T07:46:08;52.45;;;26.00;;
64938;SDS011;51453;47.738;7.420;2022-12-11T07:48:37;56.05;;;25.88;;
64938;SDS011;51453;47.738;7.420;2022-12-11T07:51:11;55.13;;;26.35;;
64938;SDS011;51453;47.738;7.420;2022-12-11T07:53:42;61.60;;;26.45;;
64938;SDS011;51453;47.738;7.420;2022-12-11T07:56:12;65.47;;;29.73;;
64938;SDS011;51453;47.738;7.420;2022-12-11T07:58:38;60.72;;;26.27;;
64938;SDS011;51453;47.738;7.420;2022-12-11T08:01:04;55.85;;;25.67;;
64938;SDS011;51453;47.738;7.420;2022-12-11T08:03:34;48.30;;;23.45;;
64938;SDS011;51453;47.738;7.420;2022-12-11T08:06:00;46.00;;;23.27;;
64938;SDS011;51453;47.738;7.420;2022-12-11T08:08:25;50.92;;;24.65;;
64938;SDS011;51453;47.738;7.420;2022-12-11T08:10:51;55.33;;;25.27;;
64938;SDS011;51453;47.738;7.420;2022-12-11T08:13:18;55.70;;;25.50;;
64938;SDS011;51453;47.738;7.420;2022-12-11T08:15:44;49.08;;;24.10;;
64938;SDS011;51453;47.738;7.420;2022-12-11T08:18:09;54.15;;;25.38;;
64938;SDS011;51453;47.738;7.420;2022-12-11T08:20:36;52.00;;;25.83;;
64938;SDS011;51453;47.738;7.420;2022-12-11T08:23:03;61.50;;;28.25;;
64938;SDS011;51453;47.738;7.420;2022-12-11T08:25:29;55.03;;;26.08;;
64938;SDS011;51453;47.738;7.420;2022-12-11T08:27:55;63.33;;;29.90;;
64938;SDS011;51453;47.738;7.420;2022-12-11T08:30:20;56.03;;;27.38;;
64938;SDS011;51453;47.738;7.420;2022-12-11T08:32:46;57.80;;;28.10;;
64938;SDS011;51453;47.738;7.420;2022-12-11T08:35:11;55.67;;;26.38;;
64938;SDS011;51453;47.738;7.420;2022-12-11T08:37:37;57.58;;;26.90;;
64938;SDS011;51453;47.738;7.420;2022-12-11T08:40:04;56.28;;;25.80;;
64938;SDS011;51453;47.738;7.420;2022-12-11T08:42:30;54.80;;;24.92;;
64938;SDS011;51453;47.738;7.420;2022-12-11T08:44:56;56.63;;;25.55;;
64938;SDS011;51453;47.738;7.420;2022-12-11T08:47:21;53.70;;;25.02;;
64938;SDS011;51453;47.738;7.420;2022-12-11T08:49:47;47.72;;;23.98;;
64938;SDS011;51453;47.738;7.420;2022-12-11T08:52:13;52.00;;;24.75;;
64938;SDS011;51453;47.738;7.420;2022-12-11T08:54:38;57.05;;;25.25;;
64938;SDS011;51453;47.738;7.420;2022-12-11T08:57:04;57.38;;;27.40;;
64938;SDS011;51453;47.738;7.420;2022-12-11T08:59:30;58.47;;;27.45;;
64938;SDS011;51453;47.738;7.420;2022-12-11T09:01:55;61.72;;;29.15;;
64938;SDS011;51453;47.738;7.420;2022-12-11T09:04:21;58.60;;;25.83;;
64938;SDS011;51453;47.738;7.420;2022-12-11T09:06:47;54.00;;;24.88;;
64938;SDS011;51453;47.738;7.420;2022-12-11T09:09:13;59.70;;;27.05;;
64938;SDS011;51453;47.738;7.420;2022-12-11T09:11:39;47.67;;;24.20;;
64938;SDS011;51453;47.738;7.420;2022-12-11T09:14:05;48.38;;;24.38;;
64938;SDS011;51453;47.738;7.420;2022-12-11T09:16:31;47.17;;;24.25;;
64938;SDS011;51453;47.738;7.420;2022-12-11T09:18:58;43.65;;;21.83;;
64938;SDS011;51453;47.738;7.420;2022-12-11T09:21:25;44.75;;;21.85;;
64938;SDS011;51453;47.738;7.420;2022-12-11T09:23:53;41.55;;;20.75;;
64938;SDS011;51453;47.738;7.420;2022-12-11T09:26:20;43.78;;;22.73;;
64938;SDS011;51453;47.738;7.420;2022-12-11T09:28:46;44.03;;;22.10;;
64938;SDS011;51453;47.738;7.420;2022-12-11T09:31:17;47.08;;;23.52;;
64938;SDS011;51453;47.738;7.420;2022-12-11T09:33:45;43.58;;;21.85;;
64938;SDS011;51453;47.738;7.420;2022-12-11T09:36:11;49.17;;;24.50;;
64938;SDS011;51453;47.738;7.420;2022-12-11T09:38:37;52.40;;;26.13;;
64938;SDS011;51453;47.738;7.420;2022-12-11T09:46:50;47.13;;;22.83;;
64938;SDS011;51453;47.738;7.420;2022-12-11T09:51:48;44.17;;;22.27;;
64938;SDS011;51453;47.738;7.420;2022-12-11T09:54:22;44.05;;;20.80;;
64938;SDS011;51453;47.738;7.420;2022-12-11T09:56:51;40.85;;;20.23;;
64938;SDS011;51453;47.738;7.420;2022-12-11T10:07:40;40.55;;;19.88;;
64938;SDS011;51453;47.738;7.420;2022-12-11T10:18:45;27.35;;;14.02;;
64938;SDS011;51453;47.738;7.420;2022-12-11T10:21:12;38.67;;;18.98;;
64938;SDS011;51453;47.738;7.420;2022-12-11T10:23:53;40.72;;;20.73;;
64938;SDS011;51453;47.738;7.420;2022-12-11T10:26:23;36.20;;;19.05;;
64938;SDS011;51453;47.738;7.420;2022-12-11T10:28:48;36.20;;;18.40;;
64938;SDS011;51453;47.738;7.420;2022-12-11T10:34:10;31.90;;;17.92;;
64938;SDS011;51453;47.738;7.420;2022-12-11T10:36:39;34.65;;;17.40;;
64938;SDS011;51453;47.738;7.420;2022-12-11T10:39:16;36.65;;;19.33;;
64938;SDS011;51453;47.738;7.420;2022-12-11T10:41:45;36.22;;;19.27;;
64938;SDS011;51453;47.738;7.420;2022-12-11T10:44:13;36.47;;;18.65;;
64938;SDS011;51453;47.738;7.420;2022-12-11T10:46:41;34.60;;;18.13;;
64938;SDS011;51453;47.738;7.420;2022-12-11T10:49:19;31.23;;;15.90;;
64938;SDS011;51453;47.738;7.420;2022-12-11T10:51:46;30.27;;;15.20;;
64938;SDS011;51453;47.738;7.420;2022-12-11T10:56:48;36.38;;;18.25;;
64938;SDS011;51453;47.738;7.420;2022-12-11T10:59:21;36.65;;;18.15;;
64938;SDS011;51453;47.738;7.420;2022-12-11T11:01:48;44.53;;;21.05;;
64938;SDS011;51453;47.738;7.420;2022-12-11T11:04:17;33.10;;;17.88;;
64938;SDS011;51453;47.738;7.420;2022-12-11T11:06:46;32.63;;;16.42;;
64938;SDS011;51453;47.738;7.420;2022-12-11T11:11:59;32.60;;;16.98;;
64938;SDS011;51453;47.738;7.420;2022-12-11T11:14:25;33.55;;;16.55;;
64938;SDS011;51453;47.738;7.420;2022-12-11T11:16:54;35.38;;;18.63;;
64938;SDS011;51453;47.738;7.420;2022-12-11T11:21:50;38.00;;;19.00;;
64938;SDS011;51453;47.738;7.420;2022-12-11T11:27:12;33.47;;;17.48;;
64938;SDS011;51453;47.738;7.420;2022-12-11T11:29:54;33.08;;;17.52;;
64938;SDS011;51453;47.738;7.420;2022-12-11T11:32:24;39.47;;;18.92;;
64938;SDS011;51453;47.738;7.420;2022-12-11T11:37:39;40.33;;;19.77;;
64938;SDS011;51453;47.738;7.420;2022-12-11T11:45:28;40.72;;;21.00;;
64938;SDS011;51453;47.738;7.420;2022-12-11T11:48:13;35.13;;;17.83;;
64938;SDS011;51453;47.738;7.420;2022-12-11T11:50:48;33.80;;;16.92;;
64938;SDS011;51453;47.738;7.420;2022-12-11T11:53:18;33.90;;;18.33;;
64938;SDS011;51453;47.738;7.420;2022-12-11T12:01:25;32.67;;;17.05;;
64938;SDS011;51453;47.738;7.420;2022-12-11T12:03:51;32.85;;;17.13;;
64938;SDS011;51453;47.738;7.420;2022-12-11T12:14:32;37.20;;;18.65;;
64938;SDS011;51453;47.738;7.420;2022-12-11T12:17:23;34.72;;;17.52;;
64938;SDS011;51453;47.738;7.420;2022-12-11T12:33:37;32.38;;;17.00;;
64938;SDS011;51453;47.738;7.420;2022-12-11T12:39:26;31.42;;;15.48;;
64938;SDS011;51453;47.738;7.420;2022-12-11T12:42:34;34.60;;;17.75;;
64938;SDS011;51453;47.738;7.420;2022-12-11T12:47:44;30.88;;;16.63;;
64938;SDS011;51453;47.738;7.420;2022-12-11T12:50:18;33.28;;;16.95;;
64938;SDS011;51453;47.738;7.420;2022-12-11T12:52:46;33.53;;;16.80;;
64938;SDS011;51453;47.738;7.420;2022-12-11T12:55:20;37.28;;;18.50;;
64938;SDS011;51453;47.738;7.420;2022-12-11T13:03:17;40.00;;;19.08;;
64938;SDS011;51453;47.738;7.420;2022-12-11T13:06:04;40.08;;;19.85;;
64938;SDS011;51453;47.738;7.420;2022-12-11T13:11:11;39.28;;;18.80;;
64938;SDS011;51453;47.738;7.420;2022-12-11T13:13:41;35.85;;;18.10;;
64938;SDS011;51453;47.738;7.420;2022-12-11T13:18:41;36.08;;;18.08;;
64938;SDS011;51453;47.738;7.420;2022-12-11T13:26:37;36.75;;;18.10;;
64938;SDS011;51453;47.738;7.420;2022-12-11T13:29:04;39.42;;;19.08;;
64938;SDS011;51453;47.738;7.420;2022-12-11T13:31:39;40.15;;;19.75;;
64938;SDS011;51453;47.738;7.420;2022-12-11T13:34:14;39.10;;;20.00;;
64938;SDS011;51453;47.738;7.420;2022-12-11T13:37:00;44.10;;;21.70;;
64938;SDS011;51453;47.738;7.420;2022-12-11T13:39:34;43.88;;;21.60;;
64938;SDS011;51453;47.738;7.420;2022-12-11T13:42:06;46.50;;;21.45;;
64938;SDS011;51453;47.738;7.420;2022-12-11T13:44:45;45.10;;;19.60;;
64938;SDS011;51453;47.738;7.420;2022-12-11T13:47:13;39.42;;;19.45;;
64938;SDS011;51453;47.738;7.420;2022-12-11T13:49:43;41.53;;;19.00;;
64938;SDS011;51453;47.738;7.420;2022-12-11T13:52:20;42.10;;;19.70;;
64938;SDS011;51453;47.738;7.420;2022-12-11T13:54:51;49.55;;;22.80;;
64938;SDS011;51453;47.738;7.420;2022-12-11T13:57:22;45.00;;;21.70;;
64938;SDS011;51453;47.738;7.420;2022-12-11T13:59:55;48.08;;;21.70;;
64938;SDS011;51453;47.738;7.420;2022-12-11T14:02:35;46.75;;;21.95;;
64938;SDS011;51453;47.738;7.420;2022-12-11T14:05:04;49.38;;;22.58;;
64938;SDS011;51453;47.738;7.420;2022-12-11T14:07:34;44.95;;;21.90;;
64938;SDS011;51453;47.738;7.420;2022-12-11T14:10:05;51.55;;;23.40;;
64938;SDS011;51453;47.738;7.420;2022-12-11T14:12:33;47.65;;;22.48;;
64938;SDS011;51453;47.738;7.420;2022-12-11T14:15:01;51.05;;;22.65;;
64938;SDS011;51453;47.738;7.420;2022-12-11T14:17:32;54.95;;;24.95;;
64938;SDS011;51453;47.738;7.420;2022-12-11T14:22:27;50.22;;;23.02;;
64938;SDS011;51453;47.738;7.420;2022-12-11T14:24:58;56.10;;;24.30;;
64938;SDS011;51453;47.738;7.420;2022-12-11T14:27:28;56.65;;;24.00;;
64938;SDS011;51453;47.738;7.420;2022-12-11T14:29:54;56.15;;;24.90;;
64938;SDS011;51453;47.738;7.420;2022-12-11T14:32:35;59.00;;;25.33;;
64938;SDS011;51453;47.738;7.420;2022-12-11T14:35:07;56.67;;;27.02;;
64938;SDS011;51453;47.738;7.420;2022-12-11T14:37:52;57.10;;;24.67;;
64938;SDS011;51453;47.738;7.420;2022-12-11T14:40:21;57.72;;;25.77;;
64938;SDS011;51453;47.738;7.420;2022-12-11T14:42:51;57.08;;;25.20;;
64938;SDS011;51453;47.738;7.420;2022-12-11T14:45:22;54.13;;;24.10;;
64938;SDS011;51453;47.738;7.420;2022-12-11T14:47:56;61.63;;;25.73;;
64938;SDS011;51453;47.738;7.420;2022-12-11T14:50:57;59.42;;;27.17;;
64938;SDS011;51453;47.738;7.420;2022-12-11T14:53:27;58.40;;;25.80;;
64938;SDS011;51453;47.738;7.420;2022-12-11T14:56:05;55.65;;;25.02;;
64938;SDS011;51453;47.738;7.420;2022-12-11T14:58:36;54.13;;;24.63;;
64938;SDS011;51453;47.738;7.420;2022-12-11T15:01:19;54.05;;;25.33;;
64938;SDS011;51453;47.738;7.420;2022-12-11T15:06:46;55.92;;;24.55;;
64938;SDS011;51453;47.738;7.420;2022-12-11T15:09:20;51.40;;;23.60;;
64938;SDS011;51453;47.738;7.420;2022-12-11T15:11:58;53.55;;;23.83;;
64938;SDS011;51453;47.738;7.420;2022-12-11T15:14:34;59.40;;;26.48;;
64938;SDS011;51453;47.738;7.420;2022-12-11T15:17:00;87.40;;;35.20;;
64938;SDS011;51453;47.738;7.420;2022-12-11T15:19:34;107.85;;;42.15;;
64938;SDS011;51453;47.738;7.420;2022-12-11T15:22:04;82.72;;;35.03;;
64938;SDS011;51453;47.738;7.420;2022-12-11T15:24:36;71.65;;;29.38;;
64938;SDS011;51453;47.738;7.420;2022-12-11T15:27:04;65.35;;;27.20;;
64938;SDS011;51453;47.738;7.420;2022-12-11T15:29:35;74.00;;;30.88;;
64938;SDS011;51453;47.738;7.420;2022-12-11T15:34:48;79.03;;;34.60;;
64938;SDS011;51453;47.738;7.420;2022-12-11T15:39:46;74.38;;;32.40;;
64938;SDS011;51453;47.738;7.420;2022-12-11T15:42:13;72.55;;;32.25;;
64938;SDS011;51453;47.738;7.420;2022-12-11T15:44:42;73.57;;;30.60;;
64938;SDS011;51453;47.738;7.420;2022-12-11T15:47:12;77.70;;;29.67;;
64938;SDS011;51453;47.738;7.420;2022-12-11T15:49:38;99.80;;;36.88;;
64938;SDS011;51453;47.738;7.420;2022-12-11T15:52:04;162.63;;;59.20;;
64938;SDS011;51453;47.738;7.420;2022-12-11T15:54:29;119.10;;;42.28;;
64938;SDS011;51453;47.738;7.420;2022-12-11T15:57:02;114.53;;;43.47;;
64938;SDS011;51453;47.738;7.420;2022-12-11T15:59:31;113.22;;;41.10;;
64938;SDS011;51453;47.738;7.420;2022-12-11T16:01:57;118.22;;;41.92;;
64938;SDS011;51453;47.738;7.420;2022-12-11T16:04:23;113.97;;;41.15;;
64938;SDS011;51453;47.738;7.420;2022-12-11T16:06:49;117.65;;;41.72;;
64938;SDS011;51453;47.738;7.420;2022-12-11T16:09:15;93.32;;;36.03;;
64938;SDS011;51453;47.738;7.420;2022-12-11T16:11:41;91.03;;;37.33;;
64938;SDS011;51453;47.738;7.420;2022-12-11T16:14:06;107.80;;;41.50;;
64938;SDS011;51453;47.738;7.420;2022-12-11T16:16:32;104.75;;;41.63;;
64938;SDS011;51453;47.738;7.420;2022-12-11T16:18:58;92.53;;;37.10;;
64938;SDS011;51453;47.738;7.420;2022-12-11T16:21:24;85.80;;;35.53;;
64938;SDS011;51453;47.738;7.420;2022-12-11T16:23:50;91.25;;;35.75;;
64938;SDS011;51453;47.738;7.420;2022-12-11T16:26:16;104.43;;;38.03;;
64938;SDS011;51453;47.738;7.420;2022-12-11T16:28:42;86.45;;;33.65;;
64938;SDS011;51453;47.738;7.420;2022-12-11T16:31:13;89.25;;;31.60;;
64938;SDS011;51453;47.738;7.420;2022-12-11T16:33:40;91.88;;;33.28;;
64938;SDS011;51453;47.738;7.420;2022-12-11T16:36:14;80.45;;;31.50;;
64938;SDS011;51453;47.738;7.420;2022-12-11T16:38:45;85.47;;;33.10;;
64938;SDS011;51453;47.738;7.420;2022-12-11T16:41:12;94.93;;;34.42;;
64938;SDS011;51453;47.738;7.420;2022-12-11T16:43:38;78.38;;;31.02;;
64938;SDS011;51453;47.738;7.420;2022-12-11T16:46:03;127.47;;;54.40;;